sensor_id;sensor_type;location;lat;lon;timestamp;P1;durP1;ratioP1;P2;durP2;ratioP2
11471;SDS011;47430;50.808;4.388;2022-08-25T00:01:08;10.05;;;3.75;;
11471;SDS011;47430;50.808;4.388;2022-08-25T00:03:34;6.95;;;3.70;;
11471;SDS011;47430;50.808;4.388;2022-08-25T00:06:03;6.50;;;4.20;;
11471;SDS011;47430;50.808;4.388;2022-08-25T00:08:29;6.15;;;3.55;;
11471;SDS011;47430;50.808;4.388;2022-08-25T00:10:55;4.32;;;3.40;;
11471;SDS011;47430;50.808;4.388;2022-08-25T00:13:21;5.05;;;3.65;;
11471;SDS011;47430;50.808;4.388;2022-08-25T00:15:47;5.53;;;3.50;;
11471;SDS011;47430;50.808;4.388;2022-08-25T00:18:13;4.15;;;3.72;;
11471;SDS011;47430;50.808;4.388;2022-08-25T00:20:39;6.60;;;3.97;;
11471;SDS011;47430;50.808;4.388;2022-08-25T00:23:05;7.72;;;4.03;;
11471;SDS011;47430;50.808;4.388;2022-08-25T00:25:31;5.35;;;3.78;;
11471;SDS011;47430;50.808;4.388;2022-08-25T00:27:57;5.38;;;3.67;;
11471;SDS011;47430;50.808;4.388;2022-08-25T00:30:24;8.57;;;3.72;;
11471;SDS011;47430;50.808;4.388;2022-08-25T00:32:50;10.75;;;4.10;;
11471;SDS011;47430;50.808;4.388;2022-08-25T00:35:16;5.70;;;4.13;;
11471;SDS011;47430;50.808;4.388;2022-08-25T00:37:42;10.25;;;4.35;;
11471;SDS011;47430;50.808;4.388;2022-08-25T00:40:08;4.30;;;3.78;;
11471;SDS011;47430;50.808;4.388;2022-08-25T00:42:35;5.43;;;4.53;;
11471;SDS011;47430;50.808;4.388;2022-08-25T00:45:02;5.70;;;3.85;;
11471;SDS011;47430;50.808;4.388;2022-08-25T00:47:28;7.43;;;3.88;;
11471;SDS011;47430;50.808;4.388;2022-08-25T00:49:55;5.72;;;4.75;;
11471;SDS011;47430;50.808;4.388;2022-08-25T00:52:24;8.27;;;4.07;;
11471;SDS011;47430;50.808;4.388;2022-08-25T00:54:53;7.93;;;4.20;;
11471;SDS011;47430;50.808;4.388;2022-08-25T00:57:22;11.13;;;4.22;;
11471;SDS011;47430;50.808;4.388;2022-08-25T00:59:49;5.18;;;4.03;;
11471;SDS011;47430;50.808;4.388;2022-08-25T01:02:16;6.15;;;4.05;;
11471;SDS011;47430;50.808;4.388;2022-08-25T01:04:42;5.43;;;4.63;;
11471;SDS011;47430;50.808;4.388;2022-08-25T01:07:09;9.52;;;4.82;;
11471;SDS011;47430;50.808;4.388;2022-08-25T01:09:36;5.13;;;3.72;;
11471;SDS011;47430;50.808;4.388;2022-08-25T01:12:03;7.72;;;4.35;;
11471;SDS011;47430;50.808;4.388;2022-08-25T01:14:30;5.65;;;4.70;;
11471;SDS011;47430;50.808;4.388;2022-08-25T01:16:57;9.38;;;5.05;;
11471;SDS011;47430;50.808;4.388;2022-08-25T01:19:24;6.18;;;4.47;;
11471;SDS011;47430;50.808;4.388;2022-08-25T01:21:51;7.78;;;4.32;;
11471;SDS011;47430;50.808;4.388;2022-08-25T01:26:59;7.90;;;4.60;;
11471;SDS011;47430;50.808;4.388;2022-08-25T01:29:26;6.50;;;4.40;;
11471;SDS011;47430;50.808;4.388;2022-08-25T01:31:57;8.50;;;4.65;;
11471;SDS011;47430;50.808;4.388;2022-08-25T01:34:26;5.53;;;4.65;;
11471;SDS011;47430;50.808;4.388;2022-08-25T01:36:52;6.82;;;5.05;;
11471;SDS011;47430;50.808;4.388;2022-08-25T01:39:19;9.27;;;4.85;;
11471;SDS011;47430;50.808;4.388;2022-08-25T01:44:15;6.68;;;4.57;;
11471;SDS011;47430;50.808;4.388;2022-08-25T01:46:42;7.50;;;4.28;;
11471;SDS011;47430;50.808;4.388;2022-08-25T01:49:09;6.28;;;5.00;;
11471;SDS011;47430;50.808;4.388;2022-08-25T01:51:41;5.22;;;4.40;;
11471;SDS011;47430;50.808;4.388;2022-08-25T01:54:08;6.82;;;4.55;;
11471;SDS011;47430;50.808;4.388;2022-08-25T01:56:34;8.48;;;4.43;;
11471;SDS011;47430;50.808;4.388;2022-08-25T01:59:00;4.68;;;3.72;;
11471;SDS011;47430;50.808;4.388;2022-08-25T02:01:27;5.00;;;4.10;;
11471;SDS011;47430;50.808;4.388;2022-08-25T02:03:53;7.95;;;5.07;;
11471;SDS011;47430;50.808;4.388;2022-08-25T02:06:22;5.80;;;4.80;;
11471;SDS011;47430;50.808;4.388;2022-08-25T02:08:50;11.65;;;4.32;;
11471;SDS011;47430;50.808;4.388;2022-08-25T02:11:17;5.68;;;4.95;;
11471;SDS011;47430;50.808;4.388;2022-08-25T02:13:43;6.68;;;4.63;;
11471;SDS011;47430;50.808;4.388;2022-08-25T02:16:09;9.93;;;4.70;;
11471;SDS011;47430;50.808;4.388;2022-08-25T02:18:40;6.97;;;4.18;;
11471;SDS011;47430;50.808;4.388;2022-08-25T02:21:06;11.80;;;4.32;;
11471;SDS011;47430;50.808;4.388;2022-08-25T02:23:33;5.03;;;4.13;;
11471;SDS011;47430;50.808;4.388;2022-08-25T02:26:01;7.68;;;4.20;;
11471;SDS011;47430;50.808;4.388;2022-08-25T02:28:27;4.70;;;4.25;;
11471;SDS011;47430;50.808;4.388;2022-08-25T02:30:53;7.43;;;4.10;;
11471;SDS011;47430;50.808;4.388;2022-08-25T02:33:19;6.53;;;4.03;;
11471;SDS011;47430;50.808;4.388;2022-08-25T02:35:46;5.32;;;3.95;;
11471;SDS011;47430;50.808;4.388;2022-08-25T02:38:12;5.50;;;3.80;;
11471;SDS011;47430;50.808;4.388;2022-08-25T02:40:38;7.35;;;4.80;;
11471;SDS011;47430;50.808;4.388;2022-08-25T02:43:05;4.88;;;4.38;;
11471;SDS011;47430;50.808;4.388;2022-08-25T02:45:30;9.00;;;4.45;;
11471;SDS011;47430;50.808;4.388;2022-08-25T02:47:57;11.63;;;4.18;;
11471;SDS011;47430;50.808;4.388;2022-08-25T02:50:23;6.47;;;4.18;;
11471;SDS011;47430;50.808;4.388;2022-08-25T02:52:50;6.18;;;4.30;;
11471;SDS011;47430;50.808;4.388;2022-08-25T02:55:17;6.80;;;3.78;;
11471;SDS011;47430;50.808;4.388;2022-08-25T02:57:43;5.93;;;3.95;;
11471;SDS011;47430;50.808;4.388;2022-08-25T03:00:10;8.00;;;4.20;;
11471;SDS011;47430;50.808;4.388;2022-08-25T03:02:37;7.22;;;4.10;;
11471;SDS011;47430;50.808;4.388;2022-08-25T03:05:03;5.43;;;4.40;;
11471;SDS011;47430;50.808;4.388;2022-08-25T03:07:31;7.40;;;4.22;;
11471;SDS011;47430;50.808;4.388;2022-08-25T03:09:57;7.95;;;4.82;;
11471;SDS011;47430;50.808;4.388;2022-08-25T03:12:23;6.50;;;4.72;;
11471;SDS011;47430;50.808;4.388;2022-08-25T03:14:49;7.53;;;4.15;;
11471;SDS011;47430;50.808;4.388;2022-08-25T03:17:16;6.65;;;4.38;;
11471;SDS011;47430;50.808;4.388;2022-08-25T03:19:42;6.47;;;4.20;;
11471;SDS011;47430;50.808;4.388;2022-08-25T03:22:08;6.45;;;4.28;;
11471;SDS011;47430;50.808;4.388;2022-08-25T03:24:34;5.13;;;4.20;;
11471;SDS011;47430;50.808;4.388;2022-08-25T03:27:00;4.88;;;4.38;;
11471;SDS011;47430;50.808;4.388;2022-08-25T03:29:28;8.90;;;4.75;;
11471;SDS011;47430;50.808;4.388;2022-08-25T03:31:55;5.47;;;4.20;;
11471;SDS011;47430;50.808;4.388;2022-08-25T03:34:27;4.28;;;3.83;;
11471;SDS011;47430;50.808;4.388;2022-08-25T03:36:55;8.98;;;3.53;;
11471;SDS011;47430;50.808;4.388;2022-08-25T03:39:22;10.52;;;4.00;;
11471;SDS011;47430;50.808;4.388;2022-08-25T03:41:48;7.65;;;3.78;;
11471;SDS011;47430;50.808;4.388;2022-08-25T03:44:16;7.03;;;4.05;;
11471;SDS011;47430;50.808;4.388;2022-08-25T03:46:43;7.15;;;3.80;;
11471;SDS011;47430;50.808;4.388;2022-08-25T03:49:14;5.25;;;3.40;;
11471;SDS011;47430;50.808;4.388;2022-08-25T03:51:46;3.88;;;3.53;;
11471;SDS011;47430;50.808;4.388;2022-08-25T03:54:18;5.72;;;3.00;;
11471;SDS011;47430;50.808;4.388;2022-08-25T03:56:44;13.52;;;4.18;;
11471;SDS011;47430;50.808;4.388;2022-08-25T03:59:10;16.15;;;4.18;;
11471;SDS011;47430;50.808;4.388;2022-08-25T04:01:37;14.57;;;4.30;;
11471;SDS011;47430;50.808;4.388;2022-08-25T04:04:04;4.82;;;2.97;;
11471;SDS011;47430;50.808;4.388;2022-08-25T04:06:30;5.80;;;3.10;;
11471;SDS011;47430;50.808;4.388;2022-08-25T04:08:57;10.85;;;4.35;;
11471;SDS011;47430;50.808;4.388;2022-08-25T04:11:24;11.90;;;3.60;;
11471;SDS011;47430;50.808;4.388;2022-08-25T04:13:51;11.15;;;3.38;;
11471;SDS011;47430;50.808;4.388;2022-08-25T04:16:21;7.93;;;4.13;;
11471;SDS011;47430;50.808;4.388;2022-08-25T04:18:48;10.88;;;4.20;;
11471;SDS011;47430;50.808;4.388;2022-08-25T04:21:15;12.23;;;3.83;;
11471;SDS011;47430;50.808;4.388;2022-08-25T04:23:42;14.65;;;4.20;;
11471;SDS011;47430;50.808;4.388;2022-08-25T04:28:35;10.70;;;4.07;;
11471;SDS011;47430;50.808;4.388;2022-08-25T04:31:04;13.82;;;4.72;;
11471;SDS011;47430;50.808;4.388;2022-08-25T04:33:30;9.10;;;4.30;;
11471;SDS011;47430;50.808;4.388;2022-08-25T04:35:57;14.30;;;4.40;;
11471;SDS011;47430;50.808;4.388;2022-08-25T04:38:23;8.52;;;3.70;;
11471;SDS011;47430;50.808;4.388;2022-08-25T04:41:00;14.68;;;3.92;;
11471;SDS011;47430;50.808;4.388;2022-08-25T04:43:26;9.75;;;3.60;;
11471;SDS011;47430;50.808;4.388;2022-08-25T04:45:53;10.23;;;4.10;;
11471;SDS011;47430;50.808;4.388;2022-08-25T04:48:19;7.72;;;3.97;;
11471;SDS011;47430;50.808;4.388;2022-08-25T04:50:46;10.00;;;3.80;;
11471;SDS011;47430;50.808;4.388;2022-08-25T04:53:12;6.70;;;3.25;;
11471;SDS011;47430;50.808;4.388;2022-08-25T04:55:39;5.05;;;3.03;;
11471;SDS011;47430;50.808;4.388;2022-08-25T04:58:06;12.70;;;4.70;;
11471;SDS011;47430;50.808;4.388;2022-08-25T05:00:33;19.80;;;4.43;;
11471;SDS011;47430;50.808;4.388;2022-08-25T05:03:00;10.27;;;3.83;;
11471;SDS011;47430;50.808;4.388;2022-08-25T05:05:26;7.97;;;3.38;;
11471;SDS011;47430;50.808;4.388;2022-08-25T05:07:52;9.23;;;3.78;;
11471;SDS011;47430;50.808;4.388;2022-08-25T05:10:19;10.07;;;4.03;;
11471;SDS011;47430;50.808;4.388;2022-08-25T05:12:45;15.80;;;4.25;;
11471;SDS011;47430;50.808;4.388;2022-08-25T05:15:11;13.35;;;4.25;;
11471;SDS011;47430;50.808;4.388;2022-08-25T05:17:56;4.35;;;3.58;;
11471;SDS011;47430;50.808;4.388;2022-08-25T05:20:23;11.80;;;4.43;;
11471;SDS011;47430;50.808;4.388;2022-08-25T05:22:49;11.40;;;3.42;;
11471;SDS011;47430;50.808;4.388;2022-08-25T05:25:16;6.07;;;3.20;;
11471;SDS011;47430;50.808;4.388;2022-08-25T05:27:42;7.35;;;3.30;;
11471;SDS011;47430;50.808;4.388;2022-08-25T05:30:09;12.55;;;3.63;;
11471;SDS011;47430;50.808;4.388;2022-08-25T05:32:35;7.53;;;3.42;;
11471;SDS011;47430;50.808;4.388;2022-08-25T05:35:01;7.88;;;2.97;;
11471;SDS011;47430;50.808;4.388;2022-08-25T05:37:27;8.10;;;3.15;;
11471;SDS011;47430;50.808;4.388;2022-08-25T05:39:53;6.65;;;3.20;;
11471;SDS011;47430;50.808;4.388;2022-08-25T05:42:19;7.90;;;2.80;;
11471;SDS011;47430;50.808;4.388;2022-08-25T05:44:46;5.40;;;3.00;;
11471;SDS011;47430;50.808;4.388;2022-08-25T05:47:13;13.18;;;3.17;;
11471;SDS011;47430;50.808;4.388;2022-08-25T05:49:39;8.77;;;3.38;;
11471;SDS011;47430;50.808;4.388;2022-08-25T05:52:05;11.73;;;3.40;;
11471;SDS011;47430;50.808;4.388;2022-08-25T05:54:31;16.33;;;4.60;;
11471;SDS011;47430;50.808;4.388;2022-08-25T05:56:57;7.30;;;3.75;;
11471;SDS011;47430;50.808;4.388;2022-08-25T05:59:25;9.55;;;4.38;;
11471;SDS011;47430;50.808;4.388;2022-08-25T06:01:51;13.48;;;4.03;;
11471;SDS011;47430;50.808;4.388;2022-08-25T06:04:36;17.88;;;4.80;;
11471;SDS011;47430;50.808;4.388;2022-08-25T06:07:02;12.55;;;4.05;;
11471;SDS011;47430;50.808;4.388;2022-08-25T06:09:28;12.52;;;4.35;;
11471;SDS011;47430;50.808;4.388;2022-08-25T06:11:54;11.55;;;4.03;;
11471;SDS011;47430;50.808;4.388;2022-08-25T06:14:20;23.75;;;7.50;;
11471;SDS011;47430;50.808;4.388;2022-08-25T06:16:47;37.22;;;7.70;;
11471;SDS011;47430;50.808;4.388;2022-08-25T06:19:15;19.58;;;4.55;;
11471;SDS011;47430;50.808;4.388;2022-08-25T06:21:41;12.52;;;3.30;;
11471;SDS011;47430;50.808;4.388;2022-08-25T06:24:08;7.13;;;2.85;;
11471;SDS011;47430;50.808;4.388;2022-08-25T06:26:35;11.80;;;3.53;;
11471;SDS011;47430;50.808;4.388;2022-08-25T06:29:01;15.80;;;3.92;;
11471;SDS011;47430;50.808;4.388;2022-08-25T06:31:28;9.48;;;2.90;;
11471;SDS011;47430;50.808;4.388;2022-08-25T06:33:54;6.28;;;2.83;;
11471;SDS011;47430;50.808;4.388;2022-08-25T06:36:22;5.28;;;2.63;;
11471;SDS011;47430;50.808;4.388;2022-08-25T06:38:48;9.43;;;2.78;;
11471;SDS011;47430;50.808;4.388;2022-08-25T06:41:14;5.50;;;2.83;;
11471;SDS011;47430;50.808;4.388;2022-08-25T06:43:40;11.52;;;3.65;;
11471;SDS011;47430;50.808;4.388;2022-08-25T06:46:10;5.68;;;3.30;;
11471;SDS011;47430;50.808;4.388;2022-08-25T06:48:37;12.88;;;4.05;;
11471;SDS011;47430;50.808;4.388;2022-08-25T06:51:04;10.90;;;4.30;;
11471;SDS011;47430;50.808;4.388;2022-08-25T06:53:30;22.77;;;7.63;;
11471;SDS011;47430;50.808;4.388;2022-08-25T06:55:56;11.10;;;3.50;;
11471;SDS011;47430;50.808;4.388;2022-08-25T06:58:23;14.65;;;5.50;;
11471;SDS011;47430;50.808;4.388;2022-08-25T07:00:49;13.10;;;2.92;;
11471;SDS011;47430;50.808;4.388;2022-08-25T07:03:15;13.95;;;4.50;;
11471;SDS011;47430;50.808;4.388;2022-08-25T07:05:42;15.93;;;4.88;;
11471;SDS011;47430;50.808;4.388;2022-08-25T07:08:15;11.82;;;2.90;;
11471;SDS011;47430;50.808;4.388;2022-08-25T07:10:41;6.32;;;2.88;;
11471;SDS011;47430;50.808;4.388;2022-08-25T07:13:07;12.35;;;3.50;;
11471;SDS011;47430;50.808;4.388;2022-08-25T07:15:36;9.70;;;2.47;;
11471;SDS011;47430;50.808;4.388;2022-08-25T07:18:02;10.93;;;3.13;;
11471;SDS011;47430;50.808;4.388;2022-08-25T07:20:28;14.75;;;4.43;;
11471;SDS011;47430;50.808;4.388;2022-08-25T07:22:55;38.30;;;5.95;;
11471;SDS011;47430;50.808;4.388;2022-08-25T07:25:22;14.38;;;3.65;;
11471;SDS011;47430;50.808;4.388;2022-08-25T07:27:48;8.68;;;3.38;;
11471;SDS011;47430;50.808;4.388;2022-08-25T07:30:15;13.98;;;3.08;;
11471;SDS011;47430;50.808;4.388;2022-08-25T07:32:41;5.25;;;2.33;;
11471;SDS011;47430;50.808;4.388;2022-08-25T07:35:07;10.52;;;3.30;;
11471;SDS011;47430;50.808;4.388;2022-08-25T07:37:40;14.77;;;5.18;;
11471;SDS011;47430;50.808;4.388;2022-08-25T07:40:08;15.77;;;5.00;;
11471;SDS011;47430;50.808;4.388;2022-08-25T07:42:34;7.70;;;3.08;;
11471;SDS011;47430;50.808;4.388;2022-08-25T07:45:00;7.32;;;3.00;;
11471;SDS011;47430;50.808;4.388;2022-08-25T07:47:27;4.43;;;2.65;;
11471;SDS011;47430;50.808;4.388;2022-08-25T07:49:53;4.13;;;2.95;;
11471;SDS011;47430;50.808;4.388;2022-08-25T07:52:19;6.93;;;2.55;;
11471;SDS011;47430;50.808;4.388;2022-08-25T07:54:45;9.65;;;3.70;;
11471;SDS011;47430;50.808;4.388;2022-08-25T07:57:12;3.60;;;2.67;;
11471;SDS011;47430;50.808;4.388;2022-08-25T07:59:39;6.28;;;2.83;;
11471;SDS011;47430;50.808;4.388;2022-08-25T08:02:08;15.68;;;4.13;;
11471;SDS011;47430;50.808;4.388;2022-08-25T08:04:35;9.23;;;4.25;;
11471;SDS011;47430;50.808;4.388;2022-08-25T08:07:01;7.00;;;2.90;;
11471;SDS011;47430;50.808;4.388;2022-08-25T08:09:27;6.88;;;3.03;;
11471;SDS011;47430;50.808;4.388;2022-08-25T08:11:55;4.07;;;2.50;;
11471;SDS011;47430;50.808;4.388;2022-08-25T08:14:22;7.20;;;2.88;;
11471;SDS011;47430;50.808;4.388;2022-08-25T08:16:48;4.32;;;2.30;;
11471;SDS011;47430;50.808;4.388;2022-08-25T08:19:15;7.07;;;3.38;;
11471;SDS011;47430;50.808;4.388;2022-08-25T08:21:41;10.45;;;2.92;;
11471;SDS011;47430;50.808;4.388;2022-08-25T08:24:07;7.70;;;4.38;;
11471;SDS011;47430;50.808;4.388;2022-08-25T08:26:33;7.18;;;2.78;;
11471;SDS011;47430;50.808;4.388;2022-08-25T08:29:00;7.40;;;2.65;;
11471;SDS011;47430;50.808;4.388;2022-08-25T08:31:26;4.88;;;2.90;;
11471;SDS011;47430;50.808;4.388;2022-08-25T08:33:53;9.40;;;3.13;;
11471;SDS011;47430;50.808;4.388;2022-08-25T08:36:19;6.78;;;2.78;;
11471;SDS011;47430;50.808;4.388;2022-08-25T08:38:46;2.90;;;2.40;;
11471;SDS011;47430;50.808;4.388;2022-08-25T08:51:57;4.18;;;2.35;;
11471;SDS011;47430;50.808;4.388;2022-08-25T08:54:24;6.80;;;2.72;;
11471;SDS011;47430;50.808;4.388;2022-08-25T08:57:02;4.95;;;3.50;;
11471;SDS011;47430;50.808;4.388;2022-08-25T08:59:32;14.10;;;3.08;;
11471;SDS011;47430;50.808;4.388;2022-08-25T09:01:59;4.00;;;2.40;;
11471;SDS011;47430;50.808;4.388;2022-08-25T09:04:29;8.23;;;2.80;;
11471;SDS011;47430;50.808;4.388;2022-08-25T09:06:58;5.13;;;2.88;;
11471;SDS011;47430;50.808;4.388;2022-08-25T09:09:28;7.55;;;3.25;;
11471;SDS011;47430;50.808;4.388;2022-08-25T09:25:19;10.13;;;3.53;;
11471;SDS011;47430;50.808;4.388;2022-08-25T09:28:00;23.58;;;4.85;;
11471;SDS011;47430;50.808;4.388;2022-08-25T09:30:34;15.60;;;3.75;;
11471;SDS011;47430;50.808;4.388;2022-08-25T09:33:02;35.17;;;5.70;;
11471;SDS011;47430;50.808;4.388;2022-08-25T09:35:30;8.27;;;3.60;;
11471;SDS011;47430;50.808;4.388;2022-08-25T09:38:03;16.75;;;4.95;;
11471;SDS011;47430;50.808;4.388;2022-08-25T09:40:30;10.70;;;3.15;;
11471;SDS011;47430;50.808;4.388;2022-08-25T09:42:58;4.40;;;2.53;;
11471;SDS011;47430;50.808;4.388;2022-08-25T09:45:33;7.60;;;2.70;;
11471;SDS011;47430;50.808;4.388;2022-08-25T09:48:01;8.50;;;3.22;;
11471;SDS011;47430;50.808;4.388;2022-08-25T09:50:31;10.18;;;3.25;;
11471;SDS011;47430;50.808;4.388;2022-08-25T09:53:11;11.07;;;3.08;;
11471;SDS011;47430;50.808;4.388;2022-08-25T09:55:39;10.18;;;2.95;;
11471;SDS011;47430;50.808;4.388;2022-08-25T09:58:17;20.45;;;4.18;;
11471;SDS011;47430;50.808;4.388;2022-08-25T10:00:43;9.60;;;3.17;;
11471;SDS011;47430;50.808;4.388;2022-08-25T10:03:18;5.03;;;2.35;;
11471;SDS011;47430;50.808;4.388;2022-08-25T10:08:12;4.43;;;2.88;;
11471;SDS011;47430;50.808;4.388;2022-08-25T10:10:44;5.40;;;2.80;;
11471;SDS011;47430;50.808;4.388;2022-08-25T10:13:16;16.77;;;2.88;;
11471;SDS011;47430;50.808;4.388;2022-08-25T10:15:43;8.05;;;2.45;;
11471;SDS011;47430;50.808;4.388;2022-08-25T10:18:20;4.35;;;2.10;;
11471;SDS011;47430;50.808;4.388;2022-08-25T10:20:59;6.88;;;2.47;;
11471;SDS011;47430;50.808;4.388;2022-08-25T10:23:26;3.00;;;2.20;;
11471;SDS011;47430;50.808;4.388;2022-08-25T10:25:52;5.53;;;2.17;;
11471;SDS011;47430;50.808;4.388;2022-08-25T10:28:31;8.35;;;2.30;;
11471;SDS011;47430;50.808;4.388;2022-08-25T10:31:12;13.07;;;3.13;;
11471;SDS011;47430;50.808;4.388;2022-08-25T10:36:09;8.02;;;2.33;;
11471;SDS011;47430;50.808;4.388;2022-08-25T10:38:44;6.05;;;2.50;;
11471;SDS011;47430;50.808;4.388;2022-08-25T10:44:33;2.60;;;1.90;;
11471;SDS011;47430;50.808;4.388;2022-08-25T10:49:47;8.15;;;2.40;;
11471;SDS011;47430;50.808;4.388;2022-08-25T10:55:00;21.20;;;7.55;;
11471;SDS011;47430;50.808;4.388;2022-08-25T11:00:04;4.75;;;2.95;;
11471;SDS011;47430;50.808;4.388;2022-08-25T11:02:47;14.23;;;5.65;;
11471;SDS011;47430;50.808;4.388;2022-08-25T11:05:29;16.30;;;4.75;;
11471;SDS011;47430;50.808;4.388;2022-08-25T11:08:03;9.68;;;3.88;;
11471;SDS011;47430;50.808;4.388;2022-08-25T11:10:36;3.90;;;2.85;;
11471;SDS011;47430;50.808;4.388;2022-08-25T11:13:05;8.13;;;3.83;;
11471;SDS011;47430;50.808;4.388;2022-08-25T11:15:36;8.02;;;2.70;;
11471;SDS011;47430;50.808;4.388;2022-08-25T11:18:06;7.40;;;3.67;;
11471;SDS011;47430;50.808;4.388;2022-08-25T11:20:37;4.07;;;2.50;;
11471;SDS011;47430;50.808;4.388;2022-08-25T11:25:51;4.18;;;2.20;;
11471;SDS011;47430;50.808;4.388;2022-08-25T11:28:31;5.35;;;2.33;;
11471;SDS011;47430;50.808;4.388;2022-08-25T11:31:00;6.22;;;2.20;;
11471;SDS011;47430;50.808;4.388;2022-08-25T11:33:28;7.13;;;3.20;;
11471;SDS011;47430;50.808;4.388;2022-08-25T11:51:38;2.83;;;2.15;;
11471;SDS011;47430;50.808;4.388;2022-08-25T11:56:49;7.47;;;2.35;;
11471;SDS011;47430;50.808;4.388;2022-08-25T11:59:57;2.30;;;2.10;;
11471;SDS011;47430;50.808;4.388;2022-08-25T12:02:02;5.82;;;3.33;;
11471;SDS011;47430;50.808;4.388;2022-08-25T12:04:39;6.15;;;2.72;;
11471;SDS011;47430;50.808;4.388;2022-08-25T12:14:54;3.53;;;2.10;;
11471;SDS011;47430;50.808;4.388;2022-08-25T12:17:22;3.67;;;2.00;;
11471;SDS011;47430;50.808;4.388;2022-08-25T12:19:53;6.45;;;2.40;;
11471;SDS011;47430;50.808;4.388;2022-08-25T12:24:56;5.38;;;2.33;;
11471;SDS011;47430;50.808;4.388;2022-08-25T12:30:04;3.28;;;2.55;;
11471;SDS011;47430;50.808;4.388;2022-08-25T12:35:27;4.70;;;2.10;;
11471;SDS011;47430;50.808;4.388;2022-08-25T12:37:56;4.22;;;2.67;;
11471;SDS011;47430;50.808;4.388;2022-08-25T12:43:08;4.75;;;2.10;;
11471;SDS011;47430;50.808;4.388;2022-08-25T12:50:47;3.90;;;2.15;;
11471;SDS011;47430;50.808;4.388;2022-08-25T12:55:51;6.65;;;2.60;;
11471;SDS011;47430;50.808;4.388;2022-08-25T12:58:19;6.43;;;2.60;;
11471;SDS011;47430;50.808;4.388;2022-08-25T13:11:11;3.33;;;2.22;;
11471;SDS011;47430;50.808;4.388;2022-08-25T13:13:45;4.70;;;2.63;;
11471;SDS011;47430;50.808;4.388;2022-08-25T13:16:17;3.17;;;2.25;;
11471;SDS011;47430;50.808;4.388;2022-08-25T13:18:44;3.30;;;2.25;;
11471;SDS011;47430;50.808;4.388;2022-08-25T13:23:47;3.47;;;2.25;;
11471;SDS011;47430;50.808;4.388;2022-08-25T13:26:15;5.88;;;2.47;;
11471;SDS011;47430;50.808;4.388;2022-08-25T13:28:43;6.30;;;2.58;;
11471;SDS011;47430;50.808;4.388;2022-08-25T13:31:17;4.75;;;2.30;;
11471;SDS011;47430;50.808;4.388;2022-08-25T13:33:53;6.95;;;2.30;;
11471;SDS011;47430;50.808;4.388;2022-08-25T13:36:19;4.63;;;2.35;;
11471;SDS011;47430;50.808;4.388;2022-08-25T13:39:14;6.38;;;2.10;;
11471;SDS011;47430;50.808;4.388;2022-08-25T13:41:45;4.35;;;2.38;;
11471;SDS011;47430;50.808;4.388;2022-08-25T13:44:12;5.85;;;2.30;;
11471;SDS011;47430;50.808;4.388;2022-08-25T13:46:38;2.67;;;2.08;;
11471;SDS011;47430;50.808;4.388;2022-08-25T13:49:05;2.53;;;2.20;;
11471;SDS011;47430;50.808;4.388;2022-08-25T13:51:32;3.33;;;2.42;;
11471;SDS011;47430;50.808;4.388;2022-08-25T13:54:00;2.70;;;2.05;;
11471;SDS011;47430;50.808;4.388;2022-08-25T13:56:34;3.47;;;2.20;;
11471;SDS011;47430;50.808;4.388;2022-08-25T13:59:03;4.65;;;2.22;;
11471;SDS011;47430;50.808;4.388;2022-08-25T14:01:31;4.20;;;2.22;;
11471;SDS011;47430;50.808;4.388;2022-08-25T14:06:43;3.03;;;2.10;;
11471;SDS011;47430;50.808;4.388;2022-08-25T14:09:13;2.00;;;1.73;;
11471;SDS011;47430;50.808;4.388;2022-08-25T14:11:43;3.22;;;1.90;;
11471;SDS011;47430;50.808;4.388;2022-08-25T14:14:10;2.90;;;2.13;;
11471;SDS011;47430;50.808;4.388;2022-08-25T14:17:20;3.45;;;2.13;;
11471;SDS011;47430;50.808;4.388;2022-08-25T14:19:27;9.52;;;3.42;;
11471;SDS011;47430;50.808;4.388;2022-08-25T14:21:54;13.10;;;4.13;;
11471;SDS011;47430;50.808;4.388;2022-08-25T14:24:23;11.93;;;4.03;;
11471;SDS011;47430;50.808;4.388;2022-08-25T14:26:49;9.45;;;4.25;;
11471;SDS011;47430;50.808;4.388;2022-08-25T14:29:16;9.35;;;4.22;;
11471;SDS011;47430;50.808;4.388;2022-08-25T14:31:43;11.40;;;4.07;;
11471;SDS011;47430;50.808;4.388;2022-08-25T14:34:14;11.70;;;4.05;;
11471;SDS011;47430;50.808;4.388;2022-08-25T14:36:41;10.27;;;3.90;;
11471;SDS011;47430;50.808;4.388;2022-08-25T14:39:07;8.68;;;4.72;;
11471;SDS011;47430;50.808;4.388;2022-08-25T14:41:35;11.68;;;4.13;;
11471;SDS011;47430;50.808;4.388;2022-08-25T14:44:02;19.92;;;4.70;;
11471;SDS011;47430;50.808;4.388;2022-08-25T14:46:29;5.07;;;3.75;;
11471;SDS011;47430;50.808;4.388;2022-08-25T14:48:57;13.27;;;5.07;;
11471;SDS011;47430;50.808;4.388;2022-08-25T14:51:24;18.48;;;4.95;;
11471;SDS011;47430;50.808;4.388;2022-08-25T14:53:51;17.75;;;5.75;;
11471;SDS011;47430;50.808;4.388;2022-08-25T14:56:17;20.70;;;5.05;;
11471;SDS011;47430;50.808;4.388;2022-08-25T14:58:43;9.60;;;4.78;;
11471;SDS011;47430;50.808;4.388;2022-08-25T15:01:11;6.97;;;3.67;;
11471;SDS011;47430;50.808;4.388;2022-08-25T15:03:39;11.20;;;3.38;;
11471;SDS011;47430;50.808;4.388;2022-08-25T15:06:06;9.18;;;3.90;;
11471;SDS011;47430;50.808;4.388;2022-08-25T15:08:33;7.20;;;3.40;;
11471;SDS011;47430;50.808;4.388;2022-08-25T15:11:17;5.82;;;3.67;;
11471;SDS011;47430;50.808;4.388;2022-08-25T15:13:43;8.48;;;3.25;;
11471;SDS011;47430;50.808;4.388;2022-08-25T15:16:14;5.25;;;3.50;;
11471;SDS011;47430;50.808;4.388;2022-08-25T15:18:42;4.88;;;3.15;;
11471;SDS011;47430;50.808;4.388;2022-08-25T15:21:08;6.32;;;3.60;;
11471;SDS011;47430;50.808;4.388;2022-08-25T15:23:34;8.95;;;3.95;;
11471;SDS011;47430;50.808;4.388;2022-08-25T15:26:00;9.65;;;3.70;;
11471;SDS011;47430;50.808;4.388;2022-08-25T15:28:26;9.38;;;4.68;;
11471;SDS011;47430;50.808;4.388;2022-08-25T15:30:52;8.90;;;5.00;;
11471;SDS011;47430;50.808;4.388;2022-08-25T15:33:18;10.80;;;5.18;;
11471;SDS011;47430;50.808;4.388;2022-08-25T15:35:46;9.15;;;5.60;;
11471;SDS011;47430;50.808;4.388;2022-08-25T15:38:12;11.02;;;5.03;;
11471;SDS011;47430;50.808;4.388;2022-08-25T15:40:38;16.98;;;5.80;;
11471;SDS011;47430;50.808;4.388;2022-08-25T15:43:05;17.48;;;8.90;;
11471;SDS011;47430;50.808;4.388;2022-08-25T15:45:31;10.52;;;6.60;;
11471;SDS011;47430;50.808;4.388;2022-08-25T15:47:59;11.60;;;6.90;;
11471;SDS011;47430;50.808;4.388;2022-08-25T15:50:25;11.20;;;6.25;;
11471;SDS011;47430;50.808;4.388;2022-08-25T15:52:54;11.30;;;5.80;;
11471;SDS011;47430;50.808;4.388;2022-08-25T15:55:20;15.68;;;7.43;;
11471;SDS011;47430;50.808;4.388;2022-08-25T15:57:46;11.27;;;5.35;;
11471;SDS011;47430;50.808;4.388;2022-08-25T16:00:12;10.93;;;6.72;;
11471;SDS011;47430;50.808;4.388;2022-08-25T16:02:38;9.32;;;7.93;;
11471;SDS011;47430;50.808;4.388;2022-08-25T16:05:06;17.52;;;8.60;;
11471;SDS011;47430;50.808;4.388;2022-08-25T16:07:32;14.32;;;7.30;;
11471;SDS011;47430;50.808;4.388;2022-08-25T16:09:58;12.10;;;7.85;;
11471;SDS011;47430;50.808;4.388;2022-08-25T16:12:24;11.93;;;7.35;;
11471;SDS011;47430;50.808;4.388;2022-08-25T16:14:51;12.60;;;8.10;;
11471;SDS011;47430;50.808;4.388;2022-08-25T16:17:17;16.45;;;6.50;;
11471;SDS011;47430;50.808;4.388;2022-08-25T16:19:43;9.70;;;6.13;;
11471;SDS011;47430;50.808;4.388;2022-08-25T16:22:09;9.38;;;7.85;;
11471;SDS011;47430;50.808;4.388;2022-08-25T16:24:39;12.95;;;6.70;;
11471;SDS011;47430;50.808;4.388;2022-08-25T16:27:06;15.10;;;7.50;;
11471;SDS011;47430;50.808;4.388;2022-08-25T16:29:33;13.27;;;6.45;;
11471;SDS011;47430;50.808;4.388;2022-08-25T16:32:01;11.98;;;7.13;;
11471;SDS011;47430;50.808;4.388;2022-08-25T16:34:29;11.80;;;7.43;;
11471;SDS011;47430;50.808;4.388;2022-08-25T16:36:55;12.35;;;7.47;;
11471;SDS011;47430;50.808;4.388;2022-08-25T16:39:21;14.75;;;7.60;;